BEL8AM EBBR-LDDU
Flight info
| Callsign | BEL8AM |
|---|---|
| Flight time | 2h 2m |
| Altitude | 37000 |
| Route | SOPOK Y863 ROPUV L607 EMGOD DCT MOVUM T109 HAREM Z74 LAMPU DCT NOMBO Y161 MAH DCT VAVOR DCT RADIZ DCT GIMIX DCT SABAD DCT SIPAL |
| Aircraft | A20N/M-DE3FGHIJ1LORVWY/HB1G1 |
Departure
| Time | 2026-05-01 12:43 |
|---|---|
| Airport | Brussels Airport (EBBR) |
Arrival
| Time | 2026-05-01 14:45 |
|---|---|
| Airport | Dubrovnik Ruđer Bošković Airport (LDDU) |
| Time | Latitude | Longitude | Altitude | Speed | Heading |
|---|---|---|---|---|---|
| 2026-05-01 12:10 | 50.90409 | 4.48594 | 119 ft | 0 kts | 156° |
| 2026-05-01 12:28 | 50.90409 | 4.48593 | 119 ft | 0 kts | 156° |
| 2026-05-01 12:29 | 50.90411 | 4.48592 | 119 ft | 1 kts | 156° |
| 2026-05-01 12:29 | 50.90425 | 4.48583 | 119 ft | 2 kts | 156° |
| 2026-05-01 12:29 | 50.90452 | 4.48562 | 117 ft | 2 kts | 156° |
| 2026-05-01 12:30 | 50.90473 | 4.48542 | 116 ft | 2 kts | 124° |
| 2026-05-01 12:30 | 50.90480 | 4.48520 | 115 ft | 2 kts | 100° |
| 2026-05-01 12:30 | 50.90480 | 4.48496 | 115 ft | 2 kts | 76° |
| 2026-05-01 12:31 | 50.90477 | 4.48485 | 115 ft | 1 kts | 61° |
| 2026-05-01 12:31 | 50.90475 | 4.48479 | 115 ft | 0 kts | 65° |
| 2026-05-01 12:31 | 50.90476 | 4.48479 | 115 ft | 0 kts | 66° |
| 2026-05-01 12:35 | 50.90478 | 4.48489 | 115 ft | 2 kts | 66° |
| 2026-05-01 12:35 | 50.90487 | 4.48518 | 115 ft | 3 kts | 66° |
| 2026-05-01 12:36 | 50.90496 | 4.48552 | 115 ft | 3 kts | 68° |
| 2026-05-01 12:36 | 50.90505 | 4.48587 | 116 ft | 3 kts | 66° |
| 2026-05-01 12:36 | 50.90519 | 4.48634 | 116 ft | 5 kts | 66° |
| 2026-05-01 12:36 | 50.90541 | 4.48711 | 116 ft | 9 kts | 66° |
| 2026-05-01 12:37 | 50.90573 | 4.48822 | 117 ft | 12 kts | 66° |
| 2026-05-01 12:37 | 50.90607 | 4.48941 | 119 ft | 11 kts | 66° |
| 2026-05-01 12:37 | 50.90641 | 4.49062 | 120 ft | 12 kts | 72° |
| 2026-05-01 12:37 | 50.90611 | 4.49156 | 123 ft | 9 kts | 150° |
| 2026-05-01 12:38 | 50.90558 | 4.49198 | 127 ft | 7 kts | 154° |
| 2026-05-01 12:38 | 50.90511 | 4.49235 | 131 ft | 7 kts | 154° |
| 2026-05-01 12:38 | 50.90466 | 4.49268 | 133 ft | 8 kts | 156° |
| 2026-05-01 12:38 | 50.90399 | 4.49314 | 137 ft | 11 kts | 156° |
| 2026-05-01 12:39 | 50.90354 | 4.49407 | 137 ft | 14 kts | 74° |
| 2026-05-01 12:39 | 50.90320 | 4.49530 | 136 ft | 15 kts | 188° |
| 2026-05-01 12:39 | 50.90226 | 4.49498 | 140 ft | 12 kts | 195° |
| 2026-05-01 12:39 | 50.90147 | 4.49464 | 144 ft | 12 kts | 194° |
| 2026-05-01 12:40 | 50.90049 | 4.49426 | 147 ft | 16 kts | 194° |
| 2026-05-01 12:40 | 50.89936 | 4.49380 | 152 ft | 18 kts | 195° |
| 2026-05-01 12:40 | 50.89798 | 4.49322 | 153 ft | 21 kts | 195° |
| 2026-05-01 12:40 | 50.89659 | 4.49264 | 154 ft | 20 kts | 200° |
| 2026-05-01 12:41 | 50.89534 | 4.49174 | 153 ft | 20 kts | 195° |
| 2026-05-01 12:41 | 50.89400 | 4.49122 | 155 ft | 18 kts | 195° |
| 2026-05-01 12:41 | 50.89331 | 4.49092 | 156 ft | 1 kts | 195° |
| 2026-05-01 12:41 | 50.89324 | 4.49089 | 156 ft | 0 kts | 195° |
| 2026-05-01 12:42 | 50.89313 | 4.49085 | 156 ft | 3 kts | 195° |
| 2026-05-01 12:42 | 50.89264 | 4.49064 | 157 ft | 10 kts | 195° |
| 2026-05-01 12:42 | 50.89186 | 4.49032 | 159 ft | 11 kts | 193° |
| 2026-05-01 12:42 | 50.89149 | 4.49101 | 160 ft | 11 kts | 71° |
| 2026-05-01 12:43 | 50.89202 | 4.49340 | 158 ft | 51 kts | 70° |
| 2026-05-01 12:43 | 50.89406 | 4.50222 | 155 ft | 117 kts | 70° |
| 2026-05-01 12:43 | 50.89745 | 4.51706 | 229 ft | 160 kts | 72° |
| 2026-05-01 12:43 | 50.90121 | 4.53334 | 809 ft | 159 kts | 72° |
| 2026-05-01 12:44 | 50.90580 | 4.54945 | 1407 ft | 165 kts | 65° |
| 2026-05-01 12:44 | 50.91152 | 4.56499 | 2021 ft | 168 kts | 63° |
| 2026-05-01 12:44 | 50.92331 | 4.60016 | 2951 ft | 197 kts | 66° |
| 2026-05-01 12:45 | 50.93639 | 4.64250 | 3748 ft | 238 kts | 71° |
| 2026-05-01 12:45 | 50.94201 | 4.66824 | 4258 ft | 255 kts | 76° |
| 2026-05-01 12:45 | 50.94728 | 4.69552 | 4908 ft | 267 kts | 76° |
| 2026-05-01 12:46 | 50.95265 | 4.72358 | 5756 ft | 270 kts | 76° |
| 2026-05-01 12:46 | 50.95688 | 4.75245 | 6576 ft | 271 kts | 92° |
| 2026-05-01 12:46 | 50.95307 | 4.78110 | 7416 ft | 267 kts | 120° |
| 2026-05-01 12:46 | 50.94175 | 4.80355 | 8251 ft | 267 kts | 141° |
| 2026-05-01 12:47 | 50.92748 | 4.82177 | 9062 ft | 270 kts | 142° |
| 2026-05-01 12:47 | 50.91281 | 4.84055 | 9873 ft | 272 kts | 142° |
| 2026-05-01 12:47 | 50.89820 | 4.85930 | 10640 ft | 276 kts | 144° |
| 2026-05-01 12:47 | 50.88114 | 4.87480 | 11061 ft | 291 kts | 158° |
| 2026-05-01 12:48 | 50.86102 | 4.88317 | 11432 ft | 310 kts | 171° |
| 2026-05-01 12:48 | 50.83933 | 4.88681 | 11996 ft | 320 kts | 173° |
| 2026-05-01 12:48 | 50.81720 | 4.89004 | 12743 ft | 323 kts | 173° |
| 2026-05-01 12:48 | 50.79498 | 4.89332 | 13486 ft | 325 kts | 173° |
| 2026-05-01 12:49 | 50.77240 | 4.89674 | 14187 ft | 329 kts | 173° |
| 2026-05-01 12:49 | 50.74963 | 4.90027 | 14856 ft | 333 kts | 173° |
| 2026-05-01 12:49 | 50.72628 | 4.90392 | 15534 ft | 337 kts | 173° |
| 2026-05-01 12:49 | 50.70298 | 4.90769 | 16197 ft | 340 kts | 171° |
| 2026-05-01 12:50 | 50.68060 | 4.91848 | 16795 ft | 343 kts | 150° |
| 2026-05-01 12:50 | 50.66194 | 4.94177 | 17406 ft | 346 kts | 131° |
| 2026-05-01 12:50 | 50.64955 | 4.97387 | 18024 ft | 351 kts | 112° |
| 2026-05-01 12:50 | 50.64185 | 5.01079 | 18662 ft | 355 kts | 109° |
| 2026-05-01 12:51 | 50.63441 | 5.04786 | 19236 ft | 359 kts | 108° |
| 2026-05-01 12:51 | 50.62690 | 5.08500 | 19827 ft | 362 kts | 108° |
| 2026-05-01 12:51 | 50.61141 | 5.16062 | 20955 ft | 369 kts | 108° |
| 2026-05-01 12:52 | 50.60342 | 5.19922 | 21527 ft | 372 kts | 108° |
| 2026-05-01 12:52 | 50.58643 | 5.27672 | 22611 ft | 378 kts | 115° |
| 2026-05-01 12:52 | 50.57333 | 5.31250 | 23118 ft | 382 kts | 124° |
| 2026-05-01 12:53 | 50.53680 | 5.37290 | 24108 ft | 389 kts | 136° |
| 2026-05-01 12:53 | 50.51664 | 5.40137 | 24589 ft | 393 kts | 137° |
| 2026-05-01 12:53 | 50.49624 | 5.43011 | 25056 ft | 396 kts | 137° |
| 2026-05-01 12:54 | 50.47574 | 5.45905 | 25504 ft | 399 kts | 137° |
| 2026-05-01 12:54 | 50.43451 | 5.51739 | 26359 ft | 404 kts | 136° |
| 2026-05-01 12:54 | 50.41366 | 5.54689 | 26770 ft | 407 kts | 136° |
| 2026-05-01 12:55 | 50.37133 | 5.60675 | 27569 ft | 412 kts | 136° |
| 2026-05-01 12:55 | 50.35013 | 5.63668 | 27945 ft | 414 kts | 136° |
| 2026-05-01 12:55 | 50.32856 | 5.66710 | 28311 ft | 417 kts | 137° |
| 2026-05-01 12:56 | 50.30710 | 5.69730 | 28662 ft | 420 kts | 137° |
| 2026-05-01 12:56 | 50.28543 | 5.72836 | 29002 ft | 422 kts | 134° |
| 2026-05-01 12:56 | 50.26639 | 5.76353 | 29331 ft | 424 kts | 125° |
| 2026-05-01 12:56 | 50.25135 | 5.80259 | 29657 ft | 426 kts | 116° |
| 2026-05-01 12:57 | 50.24031 | 5.84563 | 30063 ft | 425 kts | 107° |
| 2026-05-01 12:57 | 50.22523 | 5.93427 | 30985 ft | 422 kts | 104° |
| 2026-05-01 12:57 | 50.21803 | 5.97825 | 31381 ft | 422 kts | 104° |
| 2026-05-01 12:58 | 50.21064 | 6.02255 | 31781 ft | 421 kts | 104° |
| 2026-05-01 12:58 | 50.20327 | 6.06639 | 32159 ft | 421 kts | 104° |
| 2026-05-01 12:58 | 50.19690 | 6.11086 | 32521 ft | 420 kts | 101° |
| 2026-05-01 12:59 | 50.18917 | 6.20078 | 33178 ft | 420 kts | 94° |
| 2026-05-01 12:59 | 50.18789 | 6.24625 | 33470 ft | 420 kts | 90° |
| 2026-05-01 12:59 | 50.19049 | 6.33705 | 34043 ft | 421 kts | 84° |
| 2026-05-01 13:00 | 50.19628 | 6.42764 | 34569 ft | 422 kts | 84° |
| 2026-05-01 13:00 | 50.19920 | 6.47354 | 34824 ft | 423 kts | 84° |
| 2026-05-01 13:01 | 50.20483 | 6.56410 | 35440 ft | 422 kts | 84° |
| 2026-05-01 13:01 | 50.20761 | 6.60964 | 35744 ft | 421 kts | 84° |
| 2026-05-01 13:01 | 50.21313 | 6.70070 | 36186 ft | 422 kts | 85° |
| 2026-05-01 13:02 | 50.21582 | 6.74594 | 36392 ft | 423 kts | 85° |
| 2026-05-01 13:07 | 50.12139 | 7.69961 | 37271 ft | 429 kts | 107° |
| 2026-05-01 13:07 | 50.11244 | 7.74359 | 37268 ft | 430 kts | 107° |
| 2026-05-01 13:08 | 50.09442 | 7.83175 | 37264 ft | 430 kts | 107° |
| 2026-05-01 13:08 | 50.07623 | 7.92046 | 37263 ft | 430 kts | 107° |
| 2026-05-01 13:09 | 50.05813 | 8.00833 | 37271 ft | 430 kts | 107° |
| 2026-05-01 13:09 | 50.03983 | 8.09689 | 37277 ft | 430 kts | 107° |
| 2026-05-01 13:10 | 50.02148 | 8.18512 | 37280 ft | 430 kts | 107° |
| 2026-05-01 13:10 | 50.00309 | 8.27325 | 37283 ft | 430 kts | 107° |
| 2026-05-01 13:11 | 49.98464 | 8.36131 | 37286 ft | 430 kts | 107° |
| 2026-05-01 13:11 | 49.96607 | 8.44945 | 37290 ft | 430 kts | 107° |
| 2026-05-01 13:12 | 49.94442 | 8.53524 | 37293 ft | 431 kts | 114° |
| 2026-05-01 13:12 | 49.91631 | 8.61747 | 37296 ft | 431 kts | 118° |
| 2026-05-01 13:13 | 49.88651 | 8.69820 | 37297 ft | 432 kts | 119° |
| 2026-05-01 13:13 | 49.85682 | 8.77850 | 37295 ft | 432 kts | 119° |
| 2026-05-01 13:14 | 49.82693 | 8.85891 | 37295 ft | 431 kts | 119° |
| 2026-05-01 13:14 | 49.79689 | 8.93948 | 37294 ft | 431 kts | 119° |
| 2026-05-01 13:15 | 49.76706 | 9.01927 | 37295 ft | 431 kts | 119° |
| 2026-05-01 13:15 | 49.73707 | 9.09932 | 37293 ft | 431 kts | 118° |
| 2026-05-01 13:16 | 49.70718 | 9.17894 | 37290 ft | 431 kts | 118° |
| 2026-05-01 13:16 | 49.67706 | 9.25885 | 37287 ft | 432 kts | 118° |
| 2026-05-01 13:17 | 49.62691 | 9.37405 | 37286 ft | 434 kts | 129° |
| 2026-05-01 13:17 | 49.60642 | 9.40770 | 37288 ft | 434 kts | 134° |
| 2026-05-01 13:18 | 49.53433 | 9.49118 | 37290 ft | 436 kts | 148° |
| 2026-05-01 13:18 | 49.48198 | 9.53877 | 37293 ft | 436 kts | 148° |
| 2026-05-01 13:19 | 49.42993 | 9.58613 | 37296 ft | 436 kts | 147° |
| 2026-05-01 13:20 | 49.35333 | 9.65990 | 37307 ft | 436 kts | 142° |
| 2026-05-01 13:20 | 49.30661 | 9.71878 | 37309 ft | 435 kts | 135° |
| 2026-05-01 13:21 | 49.24238 | 9.81649 | 37313 ft | 434 kts | 133° |
| 2026-05-01 13:21 | 49.19987 | 9.88135 | 37311 ft | 434 kts | 133° |
| 2026-05-01 13:22 | 49.15708 | 9.94637 | 37314 ft | 435 kts | 133° |
| 2026-05-01 13:22 | 49.11427 | 10.01123 | 37314 ft | 435 kts | 133° |
| 2026-05-01 13:23 | 49.07140 | 10.07596 | 37307 ft | 435 kts | 133° |
| 2026-05-01 13:23 | 49.02781 | 10.13912 | 37295 ft | 435 kts | 135° |
| 2026-05-01 13:24 | 48.98332 | 10.20148 | 37292 ft | 436 kts | 135° |
| 2026-05-01 13:25 | 48.91690 | 10.29510 | 37291 ft | 435 kts | 135° |
| 2026-05-01 13:25 | 48.87268 | 10.35748 | 37295 ft | 435 kts | 135° |
| 2026-05-01 13:26 | 48.82863 | 10.42007 | 37295 ft | 435 kts | 132° |
| 2026-05-01 13:26 | 48.78690 | 10.48633 | 37296 ft | 434 kts | 130° |
| 2026-05-01 13:27 | 48.74530 | 10.55302 | 37295 ft | 435 kts | 130° |
| 2026-05-01 13:27 | 48.68315 | 10.65213 | 37297 ft | 435 kts | 131° |
| 2026-05-01 13:28 | 48.62073 | 10.75129 | 37302 ft | 435 kts | 131° |
| 2026-05-01 13:29 | 48.53784 | 10.88334 | 37309 ft | 435 kts | 130° |
| 2026-05-01 13:31 | 48.41248 | 11.08060 | 37313 ft | 435 kts | 130° |
| 2026-05-01 13:32 | 48.30764 | 11.24326 | 37298 ft | 435 kts | 130° |
| 2026-05-01 13:33 | 48.21982 | 11.42341 | 37290 ft | 427 kts | 116° |
| 2026-05-01 13:34 | 48.16041 | 11.57743 | 37286 ft | 427 kts | 116° |
| 2026-05-01 13:35 | 48.11591 | 11.69189 | 37278 ft | 427 kts | 116° |
| 2026-05-01 13:36 | 48.07109 | 11.80657 | 37282 ft | 426 kts | 116° |
| 2026-05-01 13:36 | 48.02636 | 11.92062 | 37285 ft | 425 kts | 116° |
| 2026-05-01 13:37 | 47.99647 | 11.99656 | 37286 ft | 426 kts | 116° |
| 2026-05-01 13:37 | 47.96595 | 12.07233 | 37280 ft | 427 kts | 119° |
| 2026-05-01 13:38 | 47.91067 | 12.17710 | 37276 ft | 433 kts | 129° |
| 2026-05-01 13:39 | 47.86688 | 12.23844 | 37288 ft | 436 kts | 135° |
| 2026-05-01 13:39 | 47.82032 | 12.29656 | 37285 ft | 436 kts | 135° |
| 2026-05-01 13:40 | 47.77396 | 12.35446 | 37295 ft | 436 kts | 135° |
| 2026-05-01 13:40 | 47.72765 | 12.41227 | 37306 ft | 436 kts | 135° |
| 2026-05-01 13:41 | 47.68142 | 12.46987 | 37301 ft | 437 kts | 135° |
| 2026-05-01 13:41 | 47.63485 | 12.52763 | 37305 ft | 437 kts | 136° |
| 2026-05-01 13:42 | 47.58640 | 12.58184 | 37308 ft | 439 kts | 139° |
| 2026-05-01 13:42 | 47.53713 | 12.63547 | 37308 ft | 439 kts | 139° |
| 2026-05-01 13:43 | 47.48811 | 12.68876 | 37306 ft | 439 kts | 139° |
| 2026-05-01 13:43 | 47.43921 | 12.74179 | 37316 ft | 440 kts | 139° |
| 2026-05-01 13:44 | 47.38977 | 12.79531 | 36991 ft | 439 kts | 139° |
| 2026-05-01 13:44 | 47.36515 | 12.82192 | 37217 ft | 440 kts | 139° |
| 2026-05-01 13:44 | 47.34045 | 12.84859 | 37289 ft | 441 kts | 139° |
| 2026-05-01 13:45 | 47.29127 | 12.90157 | 37320 ft | 441 kts | 139° |
| 2026-05-01 13:45 | 47.24191 | 12.95463 | 37322 ft | 441 kts | 139° |
| 2026-05-01 13:46 | 47.19236 | 13.00779 | 37313 ft | 442 kts | 139° |
| 2026-05-01 13:46 | 47.14280 | 13.06081 | 37308 ft | 442 kts | 139° |
| 2026-05-01 13:47 | 47.09306 | 13.11391 | 37295 ft | 442 kts | 139° |
| 2026-05-01 13:47 | 47.04346 | 13.16671 | 37286 ft | 442 kts | 139° |
| 2026-05-01 13:48 | 46.99382 | 13.21942 | 37273 ft | 442 kts | 138° |
| 2026-05-01 13:48 | 46.94400 | 13.27224 | 37281 ft | 442 kts | 138° |
| 2026-05-01 13:49 | 46.89423 | 13.32491 | 37287 ft | 443 kts | 138° |
| 2026-05-01 13:49 | 46.84447 | 13.37740 | 37300 ft | 443 kts | 138° |
| 2026-05-01 13:50 | 46.79447 | 13.43003 | 37306 ft | 442 kts | 138° |
| 2026-05-01 13:50 | 46.74445 | 13.48256 | 37302 ft | 443 kts | 138° |
| 2026-05-01 13:51 | 46.69460 | 13.53480 | 37304 ft | 444 kts | 138° |
| 2026-05-01 13:51 | 46.64478 | 13.58689 | 37296 ft | 443 kts | 138° |
| 2026-05-01 13:52 | 46.59478 | 13.63909 | 37294 ft | 444 kts | 138° |
| 2026-05-01 13:52 | 46.54438 | 13.69153 | 37296 ft | 443 kts | 139° |
| 2026-05-01 13:53 | 46.49510 | 13.74482 | 37301 ft | 443 kts | 136° |
| 2026-05-01 13:53 | 46.42210 | 13.82609 | 37297 ft | 442 kts | 136° |
| 2026-05-01 13:54 | 46.37327 | 13.88039 | 37293 ft | 444 kts | 136° |
| 2026-05-01 13:54 | 46.32446 | 13.93452 | 37287 ft | 444 kts | 136° |
| 2026-05-01 13:55 | 46.27531 | 13.98893 | 37287 ft | 444 kts | 136° |
| 2026-05-01 13:55 | 46.22630 | 14.04302 | 37287 ft | 444 kts | 136° |
| 2026-05-01 13:56 | 46.17758 | 14.09668 | 37292 ft | 444 kts | 136° |
| 2026-05-01 13:56 | 46.12848 | 14.15065 | 37291 ft | 445 kts | 136° |
| 2026-05-01 13:57 | 46.07926 | 14.20461 | 37288 ft | 446 kts | 136° |
| 2026-05-01 13:57 | 46.03019 | 14.25832 | 37287 ft | 445 kts | 136° |
| 2026-05-01 13:58 | 45.98069 | 14.31232 | 37284 ft | 445 kts | 136° |
| 2026-05-01 13:58 | 45.93176 | 14.36558 | 37288 ft | 445 kts | 136° |
| 2026-05-01 13:59 | 45.88248 | 14.41914 | 37281 ft | 445 kts | 135° |
| 2026-05-01 13:59 | 45.83326 | 14.47251 | 37278 ft | 445 kts | 135° |
| 2026-05-01 14:00 | 45.78389 | 14.52591 | 37272 ft | 445 kts | 135° |
| 2026-05-01 14:00 | 45.73462 | 14.57908 | 37274 ft | 445 kts | 135° |
| 2026-05-01 14:01 | 45.68524 | 14.63227 | 37274 ft | 444 kts | 135° |
| 2026-05-01 14:01 | 45.63595 | 14.68524 | 37273 ft | 444 kts | 136° |
| 2026-05-01 14:02 | 45.58670 | 14.73805 | 37253 ft | 445 kts | 136° |
| 2026-05-01 14:02 | 45.53716 | 14.79110 | 37253 ft | 445 kts | 136° |
| 2026-05-01 14:03 | 45.48779 | 14.84379 | 37280 ft | 445 kts | 136° |
| 2026-05-01 14:03 | 45.43803 | 14.89554 | 37254 ft | 446 kts | 137° |
| 2026-05-01 14:04 | 45.38704 | 14.94572 | 37261 ft | 446 kts | 138° |
| 2026-05-01 14:04 | 45.34463 | 14.98743 | 37263 ft | 446 kts | 137° |
| 2026-05-01 14:05 | 45.28520 | 15.04603 | 37271 ft | 446 kts | 137° |
| 2026-05-01 14:05 | 45.23439 | 15.09610 | 37237 ft | 446 kts | 137° |
| 2026-05-01 14:06 | 45.18354 | 15.14611 | 37256 ft | 447 kts | 137° |
| 2026-05-01 14:06 | 45.13249 | 15.19623 | 37254 ft | 446 kts | 137° |
| 2026-05-01 14:07 | 45.08166 | 15.24599 | 37237 ft | 446 kts | 137° |
| 2026-05-01 14:08 | 45.00521 | 15.32070 | 37246 ft | 448 kts | 137° |
| 2026-05-01 14:08 | 44.95399 | 15.37061 | 37223 ft | 448 kts | 137° |
| 2026-05-01 14:09 | 44.90275 | 15.42041 | 37232 ft | 449 kts | 138° |
| 2026-05-01 14:09 | 44.85148 | 15.47014 | 37222 ft | 449 kts | 138° |
| 2026-05-01 14:10 | 44.79997 | 15.51999 | 37226 ft | 450 kts | 138° |
| 2026-05-01 14:10 | 44.74878 | 15.56941 | 37205 ft | 449 kts | 138° |
| 2026-05-01 14:11 | 44.69712 | 15.61919 | 37207 ft | 450 kts | 138° |
| 2026-05-01 14:11 | 44.61956 | 15.69369 | 37375 ft | 451 kts | 139° |
| 2026-05-01 14:12 | 44.56780 | 15.74327 | 37270 ft | 452 kts | 139° |
| 2026-05-01 14:12 | 44.51619 | 15.79259 | 37224 ft | 450 kts | 139° |
| 2026-05-01 14:13 | 44.47319 | 15.83361 | 37220 ft | 451 kts | 139° |
| 2026-05-01 14:13 | 44.41305 | 15.89089 | 37203 ft | 450 kts | 139° |
| 2026-05-01 14:14 | 44.36124 | 15.94013 | 37180 ft | 450 kts | 140° |
| 2026-05-01 14:14 | 44.30927 | 15.98936 | 37196 ft | 451 kts | 139° |
| 2026-05-01 14:15 | 44.25744 | 16.03839 | 37190 ft | 453 kts | 140° |
| 2026-05-01 14:15 | 44.20547 | 16.08742 | 37179 ft | 453 kts | 140° |
| 2026-05-01 14:16 | 44.15324 | 16.13663 | 37173 ft | 454 kts | 140° |
| 2026-05-01 14:16 | 44.10089 | 16.18579 | 37193 ft | 454 kts | 140° |
| 2026-05-01 14:17 | 44.04872 | 16.23468 | 37197 ft | 453 kts | 140° |
| 2026-05-01 14:17 | 43.99673 | 16.28337 | 37197 ft | 456 kts | 141° |
| 2026-05-01 14:18 | 43.94424 | 16.33232 | 37202 ft | 455 kts | 141° |
| 2026-05-01 14:18 | 43.90039 | 16.37318 | 37191 ft | 456 kts | 141° |
| 2026-05-01 14:19 | 43.83908 | 16.43026 | 37174 ft | 459 kts | 141° |
| 2026-05-01 14:19 | 43.81247 | 16.45490 | 36957 ft | 457 kts | 141° |
| 2026-05-01 14:19 | 43.78615 | 16.47922 | 36740 ft | 454 kts | 141° |
| 2026-05-01 14:20 | 43.76015 | 16.50321 | 36529 ft | 450 kts | 140° |
| 2026-05-01 14:20 | 43.70866 | 16.55082 | 36087 ft | 443 kts | 140° |
| 2026-05-01 14:20 | 43.68327 | 16.57429 | 35855 ft | 442 kts | 140° |
| 2026-05-01 14:21 | 43.65765 | 16.59796 | 35576 ft | 444 kts | 140° |
| 2026-05-01 14:21 | 43.63204 | 16.62152 | 35197 ft | 444 kts | 140° |
| 2026-05-01 14:21 | 43.60628 | 16.64525 | 34660 ft | 445 kts | 140° |
| 2026-05-01 14:22 | 43.55440 | 16.69290 | 33480 ft | 451 kts | 140° |
| 2026-05-01 14:22 | 43.52828 | 16.71690 | 32884 ft | 456 kts | 140° |
| 2026-05-01 14:22 | 43.50199 | 16.74097 | 32216 ft | 460 kts | 139° |
| 2026-05-01 14:22 | 43.47540 | 16.76531 | 31488 ft | 463 kts | 139° |
| 2026-05-01 14:23 | 43.44870 | 16.78970 | 30751 ft | 464 kts | 139° |
| 2026-05-01 14:23 | 43.42202 | 16.81409 | 29983 ft | 463 kts | 139° |
| 2026-05-01 14:23 | 43.39518 | 16.83864 | 29236 ft | 461 kts | 139° |
| 2026-05-01 14:23 | 43.36887 | 16.86261 | 28733 ft | 455 kts | 140° |
| 2026-05-01 14:24 | 43.34268 | 16.88647 | 28238 ft | 448 kts | 140° |
| 2026-05-01 14:24 | 43.31686 | 16.90996 | 27737 ft | 443 kts | 140° |
| 2026-05-01 14:24 | 43.29149 | 16.93302 | 27239 ft | 438 kts | 140° |
| 2026-05-01 14:24 | 43.26603 | 16.95613 | 26737 ft | 433 kts | 140° |
| 2026-05-01 14:25 | 43.24107 | 16.97878 | 26256 ft | 429 kts | 140° |
| 2026-05-01 14:25 | 43.21668 | 17.00092 | 25775 ft | 425 kts | 140° |
| 2026-05-01 14:25 | 43.19210 | 17.02320 | 25286 ft | 421 kts | 141° |
| 2026-05-01 14:25 | 43.16777 | 17.04524 | 24788 ft | 418 kts | 141° |
| 2026-05-01 14:26 | 43.14353 | 17.06712 | 24298 ft | 414 kts | 141° |
| 2026-05-01 14:26 | 43.09684 | 17.11108 | 23328 ft | 406 kts | 139° |
| 2026-05-01 14:26 | 43.07367 | 17.13355 | 22853 ft | 403 kts | 139° |
| 2026-05-01 14:27 | 43.05125 | 17.15528 | 22379 ft | 400 kts | 140° |
| 2026-05-01 14:27 | 43.02846 | 17.17728 | 21903 ft | 397 kts | 140° |
| 2026-05-01 14:27 | 43.00623 | 17.19865 | 21451 ft | 394 kts | 140° |
| 2026-05-01 14:28 | 42.96166 | 17.24143 | 20519 ft | 388 kts | 140° |
| 2026-05-01 14:28 | 42.93975 | 17.26237 | 20058 ft | 385 kts | 140° |
| 2026-05-01 14:28 | 42.91815 | 17.28303 | 19605 ft | 382 kts | 140° |
| 2026-05-01 14:28 | 42.89649 | 17.30371 | 19152 ft | 379 kts | 140° |
| 2026-05-01 14:29 | 42.87476 | 17.32446 | 18699 ft | 376 kts | 140° |
| 2026-05-01 14:29 | 42.85341 | 17.34484 | 18239 ft | 373 kts | 141° |
| 2026-05-01 14:30 | 42.79046 | 17.40477 | 16931 ft | 365 kts | 141° |
| 2026-05-01 14:30 | 42.77016 | 17.42493 | 16483 ft | 360 kts | 134° |
| 2026-05-01 14:30 | 42.75323 | 17.44907 | 16027 ft | 352 kts | 122° |
| 2026-05-01 14:31 | 42.72921 | 17.50557 | 15155 ft | 341 kts | 112° |
| 2026-05-01 14:31 | 42.71846 | 17.53388 | 14732 ft | 338 kts | 112° |
| 2026-05-01 14:31 | 42.70766 | 17.56221 | 14315 ft | 336 kts | 112° |
| 2026-05-01 14:31 | 42.69690 | 17.59024 | 13885 ft | 334 kts | 113° |
| 2026-05-01 14:32 | 42.68618 | 17.61801 | 13457 ft | 331 kts | 113° |
| 2026-05-01 14:32 | 42.67563 | 17.64526 | 13040 ft | 329 kts | 113° |
| 2026-05-01 14:32 | 42.66497 | 17.67271 | 12619 ft | 327 kts | 114° |
| 2026-05-01 14:32 | 42.65431 | 17.70013 | 12189 ft | 325 kts | 114° |
| 2026-05-01 14:33 | 42.64379 | 17.72709 | 11763 ft | 323 kts | 114° |
| 2026-05-01 14:33 | 42.63344 | 17.75361 | 11356 ft | 321 kts | 114° |
| 2026-05-01 14:33 | 42.62294 | 17.78048 | 10928 ft | 319 kts | 114° |
| 2026-05-01 14:33 | 42.61262 | 17.80686 | 10533 ft | 316 kts | 114° |
| 2026-05-01 14:34 | 42.60248 | 17.83274 | 10413 ft | 303 kts | 114° |
| 2026-05-01 14:34 | 42.59272 | 17.85759 | 10298 ft | 291 kts | 114° |
| 2026-05-01 14:34 | 42.58352 | 17.88098 | 10175 ft | 279 kts | 114° |
| 2026-05-01 14:34 | 42.57443 | 17.90413 | 9903 ft | 275 kts | 114° |
| 2026-05-01 14:35 | 42.56558 | 17.92675 | 9540 ft | 274 kts | 114° |
| 2026-05-01 14:35 | 42.55664 | 17.94955 | 9190 ft | 273 kts | 114° |
| 2026-05-01 14:35 | 42.54769 | 17.97232 | 8835 ft | 271 kts | 114° |
| 2026-05-01 14:35 | 42.53890 | 17.99462 | 8513 ft | 268 kts | 113° |
| 2026-05-01 14:36 | 42.53018 | 18.01673 | 8219 ft | 265 kts | 113° |
| 2026-05-01 14:36 | 42.52153 | 18.03872 | 7909 ft | 263 kts | 113° |
| 2026-05-01 14:36 | 42.51303 | 18.06026 | 7585 ft | 261 kts | 113° |
| 2026-05-01 14:36 | 42.50453 | 18.08182 | 7278 ft | 259 kts | 113° |
| 2026-05-01 14:37 | 42.49601 | 18.10340 | 6951 ft | 257 kts | 113° |
| 2026-05-01 14:37 | 42.48764 | 18.12457 | 6653 ft | 254 kts | 113° |
| 2026-05-01 14:37 | 42.47934 | 18.14558 | 6335 ft | 252 kts | 113° |
| 2026-05-01 14:37 | 42.47113 | 18.16649 | 6057 ft | 258 kts | 113° |
| 2026-05-01 14:38 | 42.46275 | 18.18782 | 5728 ft | 258 kts | 113° |
| 2026-05-01 14:38 | 42.45434 | 18.20914 | 5403 ft | 256 kts | 113° |
| 2026-05-01 14:38 | 42.44596 | 18.23029 | 5222 ft | 247 kts | 113° |
| 2026-05-01 14:38 | 42.43817 | 18.24985 | 5155 ft | 229 kts | 113° |
| 2026-05-01 14:39 | 42.43066 | 18.26886 | 5087 ft | 224 kts | 113° |
| 2026-05-01 14:39 | 42.42343 | 18.28710 | 5010 ft | 213 kts | 112° |
| 2026-05-01 14:39 | 42.41718 | 18.30469 | 4844 ft | 207 kts | 103° |
| 2026-05-01 14:39 | 42.41414 | 18.32343 | 4561 ft | 200 kts | 90° |
| 2026-05-01 14:40 | 42.41441 | 18.34180 | 4397 ft | 196 kts | 79° |
| 2026-05-01 14:40 | 42.41763 | 18.35960 | 4097 ft | 193 kts | 68° |
| 2026-05-01 14:40 | 42.42347 | 18.37566 | 3819 ft | 192 kts | 56° |
| 2026-05-01 14:40 | 42.43173 | 18.38972 | 3575 ft | 188 kts | 45° |
| 2026-05-01 14:41 | 42.44123 | 18.40035 | 3506 ft | 163 kts | 34° |
| 2026-05-01 14:41 | 42.45049 | 18.40729 | 3412 ft | 146 kts | 25° |
| 2026-05-01 14:41 | 42.46001 | 18.41181 | 3355 ft | 144 kts | 17° |
| 2026-05-01 14:41 | 42.46991 | 18.41417 | 3286 ft | 145 kts | 9° |
| 2026-05-01 14:42 | 42.48005 | 18.41420 | 3122 ft | 145 kts | 359° |
| 2026-05-01 14:42 | 42.48977 | 18.41145 | 2866 ft | 143 kts | 347° |
| 2026-05-01 14:42 | 42.49880 | 18.40602 | 2670 ft | 142 kts | 335° |
| 2026-05-01 14:42 | 42.50687 | 18.39811 | 2453 ft | 142 kts | 323° |
| 2026-05-01 14:43 | 42.51337 | 18.38828 | 2250 ft | 142 kts | 311° |
| 2026-05-01 14:43 | 42.51863 | 18.37664 | 2066 ft | 148 kts | 304° |
| 2026-05-01 14:43 | 42.52346 | 18.36443 | 1867 ft | 148 kts | 301° |
| 2026-05-01 14:43 | 42.52835 | 18.35200 | 1689 ft | 149 kts | 298° |
| 2026-05-01 14:44 | 42.53325 | 18.33957 | 1475 ft | 150 kts | 298° |
| 2026-05-01 14:44 | 42.54267 | 18.31547 | 1081 ft | 145 kts | 303° |
| 2026-05-01 14:44 | 42.54753 | 18.30359 | 878 ft | 145 kts | 297° |
| 2026-05-01 14:45 | 42.55238 | 18.29155 | 668 ft | 145 kts | 294° |
| 2026-05-01 14:45 | 42.56134 | 18.26819 | 517 ft | 106 kts | 298° |
| 2026-05-01 14:45 | 42.56342 | 18.26285 | 521 ft | 20 kts | 295° |
| 2026-05-01 14:46 | 42.56278 | 18.26220 | 522 ft | 14 kts | 168° |
| 2026-05-01 14:46 | 42.56227 | 18.26250 | 521 ft | 0 kts | 154° |
| 2026-05-01 14:46 | 42.56217 | 18.26256 | 521 ft | 2 kts | 154° |
| 2026-05-01 14:47 | 42.56192 | 18.26272 | 520 ft | 5 kts | 153° |
| 2026-05-01 14:47 | 42.56149 | 18.26281 | 519 ft | 7 kts | 202° |
| 2026-05-01 14:47 | 42.56119 | 18.26262 | 518 ft | 3 kts | 208° |
| 2026-05-01 14:48 | 42.56106 | 18.26253 | 517 ft | 0 kts | 208° |